Time;durP1;ratioP1;P1;durP2;ratioP2;P2;SDS_P1;SDS_P2;PMS_P1;PMS_P2;Temp;Humidity;BMP_temperature;BMP_pressure;BME280_temperature;BME280_humidity;BME280_pressure;Samples;Min_cycle;Max_cycle;Signal;HPM_P1;HPM_P2
2023/02/15 00:01:43;;;;;;;111.10;43.63;;;;;;;3.66;70.29;100154.56;4969701;28;20023;-80
2023/02/15 00:04:09;;;;;;;110.78;44.22;;;;;;;3.63;70.43;100156.84;4968700;28;20507;-80
2023/02/15 00:06:35;;;;;;;99.05;42.45;;;;;;;3.60;70.73;100154.53;4968065;28;20621;-80
2023/02/15 00:09:01;;;;;;;96.50;39.33;;;;;;;3.58;70.61;100147.44;4968071;28;20038;-80
2023/02/15 00:14:30;;;;;;;65.35;31.50;;;;;;;3.56;70.83;100144.09;4984391;28;20030;-80
2023/02/15 00:16:59;;;;;;;64.90;31.52;;;;;;;3.55;70.84;100147.84;4968119;28;20590;-81
2023/02/15 00:19:25;;;;;;;55.45;27.02;;;;;;;3.55;70.51;100141.63;4975801;28;20039;-80
2023/02/15 00:21:50;;;;;;;49.55;24.92;;;;;;;3.55;70.32;100150.56;4967162;28;20025;-81
2023/02/15 00:24:19;;;;;;;52.08;25.20;;;;;;;3.55;70.71;100150.56;4967042;28;20439;-80
2023/02/15 00:26:46;;;;;;;55.92;26.08;;;;;;;3.57;70.75;100139.53;4966912;28;20027;-80
2023/02/15 00:29:13;;;;;;;55.28;26.27;;;;;;;3.58;70.51;100142.03;4967157;28;20019;-81
2023/02/15 00:31:38;;;;;;;69.72;30.63;;;;;;;3.61;70.31;100131.78;4967218;28;20041;-80
2023/02/15 00:34:18;;;;;;;62.85;27.05;;;;;;;3.62;70.52;100128.03;4968978;28;20023;-80
2023/02/15 00:36:44;;;;;;;66.60;27.88;;;;;;;3.63;70.84;100119.69;4968939;28;20423;-80
2023/02/15 00:39:09;;;;;;;66.38;28.05;;;;;;;3.62;70.24;100114.47;4969100;28;20031;-80
2023/02/15 00:41:35;;;;;;;62.40;28.08;;;;;;;3.65;70.81;100130.34;4967725;28;20042;-80
2023/02/15 00:44:01;;;;;;;64.05;29.05;;;;;;;3.67;70.54;100120.94;4969537;28;20039;-81
2023/02/15 00:46:27;;;;;;;67.45;29.60;;;;;;;3.69;70.41;100115.31;4969181;28;20542;-81
2023/02/15 00:48:52;;;;;;;60.58;28.63;;;;;;;3.69;70.50;100118.03;4969462;28;20042;-81
2023/02/15 00:51:17;;;;;;;58.85;29.58;;;;;;;3.72;70.45;100115.72;4969229;28;20114;-81
2023/02/15 00:53:46;;;;;;;61.40;31.13;;;;;;;3.74;70.79;100112.78;4969245;28;20483;-82
2023/02/15 00:56:12;;;;;;;58.45;31.27;;;;;;;3.73;70.89;100108.41;4969216;28;20030;-80
2023/02/15 00:58:37;;;;;;;49.92;26.98;;;;;;;3.74;70.64;100107.38;4970139;28;20039;-81
2023/02/15 01:01:09;;;;;;;49.08;26.90;;;;;;;3.72;70.30;100107.56;4969209;28;20388;-81
2023/02/15 01:03:35;;;;;;;50.78;26.77;;;;;;;3.73;70.19;100116.56;4968145;28;20391;-81
2023/02/15 01:06:01;;;;;;;50.53;26.75;;;;;;;3.73;70.54;100117.38;4967995;28;20054;-82
2023/02/15 01:08:26;;;;;;;53.13;27.00;;;;;;;3.71;70.20;100107.78;4968602;28;20042;-81
2023/02/15 01:10:52;;;;;;;54.35;26.85;;;;;;;3.69;71.06;100099.03;4968727;28;20034;-81
2023/02/15 01:13:18;;;;;;;58.75;28.40;;;;;;;3.69;70.41;100099.84;4967412;28;20498;-81
2023/02/15 01:15:44;;;;;;;53.22;27.33;;;;;;;3.70;70.65;100093.38;4967683;28;20039;-81
2023/02/15 01:18:11;;;;;;;55.65;27.48;;;;;;;3.69;70.52;100091.69;4968974;28;20033;-81
2023/02/15 01:20:40;;;;;;;60.88;28.45;;;;;;;3.68;70.64;100094.63;4969018;28;20388;-82
2023/02/15 01:23:06;;;;;;;54.22;27.50;;;;;;;3.68;70.42;100095.47;4968931;28;20030;-81
2023/02/15 01:25:33;;;;;;;61.10;30.38;;;;;;;3.67;70.46;100090.25;4968275;28;20489;-81
2023/02/15 01:28:00;;;;;;;52.75;28.40;;;;;;;3.66;70.31;100081.31;4968397;28;20031;-81
2023/02/15 01:30:26;;;;;;;56.80;28.48;;;;;;;3.66;70.09;100080.44;4967443;28;20050;-81
2023/02/15 01:32:51;;;;;;;52.92;26.98;;;;;;;3.63;70.71;100089.84;4966469;28;20956;-81
2023/02/15 01:35:28;;;;;;;54.05;27.10;;;;;;;3.62;70.38;100081.91;4968928;28;20527;-80
2023/02/15 01:37:55;;;;;;;51.33;26.42;;;;;;;3.61;70.33;100072.09;4966651;28;20105;-80
2023/02/15 01:40:20;;;;;;;45.58;24.02;;;;;;;3.62;70.83;100062.91;4971396;28;20034;-79
2023/02/15 01:42:51;;;;;;;41.80;22.83;;;;;;;3.63;70.64;100067.31;4973025;28;20035;-80
2023/02/15 01:45:31;;;;;;;36.58;21.73;;;;;;;3.60;69.99;100062.28;4972808;28;20080;-80
2023/02/15 01:48:22;;;;;;;40.15;22.63;;;;;;;3.56;70.32;100059.19;4971593;28;20503;-80
2023/02/15 01:51:00;;;;;;;39.97;22.65;;;;;;;3.55;70.04;100060.22;4973097;28;20138;-80
2023/02/15 01:53:39;;;;;;;43.33;23.67;;;;;;;3.52;70.39;100061.47;4971312;28;20035;-80
2023/02/15 01:56:19;;;;;;;41.45;23.85;;;;;;;3.52;70.62;100057.94;4971931;28;20030;-81
2023/02/15 01:58:45;;;;;;;40.25;22.67;;;;;;;3.54;70.44;100047.69;4971624;28;20027;-81
2023/02/15 02:01:11;;;;;;;43.25;23.52;;;;;;;3.52;70.81;100053.31;4972679;28;20025;-80
2023/02/15 02:03:48;;;;;;;43.45;24.17;;;;;;;3.49;70.06;100056.44;4972421;28;20501;-80
2023/02/15 02:06:14;;;;;;;42.75;23.38;;;;;;;3.46;70.16;100051.47;4972237;28;20069;-81
2023/02/15 02:08:40;;;;;;;39.33;22.75;;;;;;;3.43;69.92;100050.00;4972765;28;20066;-80
2023/02/15 02:11:13;;;;;;;36.33;21.77;;;;;;;3.37;69.76;100053.53;4971841;28;20035;-80
2023/02/15 02:13:43;;;;;;;32.20;18.42;;;;;;;3.34;70.15;100053.16;4970470;28;20046;-80
2023/02/15 02:16:34;;;;;;;29.90;17.95;;;;;;;3.31;70.58;100046.25;4970398;28;20588;-80
2023/02/15 02:19:19;;;;;;;28.15;16.63;;;;;;;3.27;70.43;100031.44;4971494;28;20023;-81
2023/02/15 02:21:59;;;;;;;31.88;17.92;;;;;;;3.23;70.51;100028.31;4972723;28;20026;-80
2023/02/15 02:24:46;;;;;;;29.45;17.73;;;;;;;3.18;70.00;100022.69;4966838;28;20046;-81
2023/02/15 02:27:30;;;;;;;32.55;19.33;;;;;;;3.16;70.16;100019.34;4968787;28;20046;-81
2023/02/15 02:30:23;;;;;;;29.55;17.35;;;;;;;3.09;70.36;100002.25;4969911;28;20042;-81
2023/02/15 02:33:11;;;;;;;29.70;18.45;;;;;;;3.03;69.78;100003.91;4968290;28;20042;-80
2023/02/15 02:35:55;;;;;;;43.45;24.85;;;;;;;2.94;69.76;100002.44;4984494;28;20038;-80
2023/02/15 02:38:32;;;;;;;51.45;27.40;;;;;;;2.87;70.11;99998.91;4965433;28;20030;-80
2023/02/15 02:41:22;;;;;;;49.92;27.00;;;;;;;2.75;70.24;99996.81;4968110;28;20030;-80
2023/02/15 02:43:51;;;;;;;46.53;25.30;;;;;;;2.71;69.69;100000.13;4968086;28;20518;-80
2023/02/15 02:46:21;;;;;;;39.28;22.42;;;;;;;2.61;69.43;99995.13;4969898;28;20518;-81
2023/02/15 02:48:49;;;;;;;37.20;22.23;;;;;;;2.54;69.80;99995.13;4968124;28;20114;-80
2023/02/15 02:51:21;;;;;;;40.80;23.67;;;;;;;2.47;70.44;99995.09;4969435;28;20046;-80
2023/02/15 02:53:48;;;;;;;36.28;21.85;;;;;;;2.38;69.75;99990.94;4969156;28;20495;-80
2023/02/15 02:56:28;;;;;;;37.53;21.98;;;;;;;2.29;69.45;99995.66;4969210;28;20038;-81
2023/02/15 02:58:59;;;;;;;35.53;20.92;;;;;;;2.21;69.49;99988.59;4968714;28;20024;-80
2023/02/15 03:02:07;;;;;;;39.55;22.00;;;;;;;2.11;69.38;99987.31;4969707;28;20162;-80
2023/02/15 03:04:39;;;;;;;35.90;21.10;;;;;;;2.03;69.21;99994.56;4967852;28;20031;-82
2023/02/15 03:07:09;;;;;;;35.15;20.83;;;;;;;1.96;70.23;99987.47;4970668;28;20057;-80
2023/02/15 03:09:43;;;;;;;36.90;19.92;;;;;;;1.86;69.47;99983.25;4969876;28;20031;-80
2023/02/15 03:12:12;;;;;;;34.65;20.63;;;;;;;1.77;69.75;99985.31;4969951;28;20431;-80
2023/02/15 03:14:39;;;;;;;34.77;20.93;;;;;;;1.67;69.72;99984.81;4967664;28;20073;-80
2023/02/15 03:17:07;;;;;;;37.30;20.50;;;;;;;1.60;69.75;99984.78;4970400;28;20274;-80
2023/02/15 03:19:36;;;;;;;36.92;21.15;;;;;;;1.53;70.17;99989.31;4970565;28;20035;-80
2023/02/15 03:22:11;;;;;;;37.13;21.08;;;;;;;1.45;69.74;99976.78;4970476;28;20034;-80
2023/02/15 03:24:45;;;;;;;34.28;20.33;;;;;;;1.38;69.61;99978.63;4968948;28;20038;-81
2023/02/15 03:27:17;;;;;;;36.92;20.35;;;;;;;1.33;69.50;99987.31;4969930;28;20045;-80
2023/02/15 03:29:48;;;;;;;36.08;20.23;;;;;;;1.25;69.63;99982.06;4969889;28;20041;-81
2023/02/15 03:32:15;;;;;;;40.10;21.05;;;;;;;1.22;69.96;99989.75;4970511;28;20174;-80
2023/02/15 03:34:41;;;;;;;37.58;20.88;;;;;;;1.16;70.27;99986.78;4969174;28;20027;-79
2023/02/15 03:37:25;;;;;;;36.78;20.98;;;;;;;1.12;69.57;99984.69;4970837;28;20097;-81
2023/02/15 03:41:08;;;;;;;39.58;21.52;;;;;;;1.07;69.70;99979.84;4970649;28;20041;-81
2023/02/15 03:42:49;;;;;;;37.30;21.55;;;;;;;1.02;69.89;99983.16;4969836;28;20035;-80
2023/02/15 03:45:22;;;;;;;40.08;21.55;;;;;;;0.98;70.14;99991.84;4970508;28;20015;-80
2023/02/15 03:47:50;;;;;;;43.03;22.77;;;;;;;0.93;69.85;99989.72;4971416;28;20495;-81
2023/02/15 03:53:09;;;;;;;44.72;23.02;;;;;;;0.82;69.57;99999.19;4967227;28;20042;-80
2023/02/15 03:55:34;;;;;;;46.78;25.33;;;;;;;0.76;70.11;100005.38;4968086;28;20496;-80
2023/02/15 04:04:39;;;;;;;45.08;25.42;;;;;;;0.64;69.87;99998.81;4948203;29;20039;-80
2023/02/15 04:07:07;;;;;;;48.90;26.42;;;;;;;0.60;70.16;100006.47;4948465;29;20591;-80
2023/02/15 04:12:16;;;;;;;52.80;27.30;;;;;;;0.54;70.05;99994.59;4967343;28;20042;-81
2023/02/15 04:17:26;;;;;;;51.88;28.05;;;;;;;0.55;70.88;100003.50;4968473;28;20050;-80
2023/02/15 04:25:20;;;;;;;49.13;26.08;;;;;;;0.56;70.37;100002.47;4967096;28;20050;-81
2023/02/15 04:27:48;;;;;;;46.30;25.42;;;;;;;0.58;70.38;100005.81;4969504;28;20022;-81
2023/02/15 04:30:15;;;;;;;48.30;26.05;;;;;;;0.61;70.77;100012.72;4968766;28;20185;-81
2023/02/15 04:32:40;;;;;;;53.75;27.08;;;;;;;0.62;70.53;100006.25;4968647;28;20049;-81
2023/02/15 04:35:07;;;;;;;56.88;27.48;;;;;;;0.64;70.57;100009.59;4967153;28;20034;-81
2023/02/15 04:37:32;;;;;;;55.38;28.48;;;;;;;0.67;70.42;100007.38;4967589;28;20028;-81
2023/02/15 04:39:58;;;;;;;55.60;29.02;;;;;;;0.69;71.07;100002.63;4969123;28;20080;-81
2023/02/15 04:42:25;;;;;;;62.78;30.30;;;;;;;0.73;71.01;100001.19;4968729;28;20077;-80
2023/02/15 04:44:51;;;;;;;55.45;29.83;;;;;;;0.76;71.04;99999.16;4968692;28;20039;-81
2023/02/15 04:47:16;;;;;;;56.05;29.30;;;;;;;0.78;70.72;100006.00;4966546;28;20134;-80
2023/02/15 04:49:42;;;;;;;56.80;29.35;;;;;;;0.81;70.95;99992.13;4968705;28;20041;-81
2023/02/15 04:52:07;;;;;;;57.72;29.52;;;;;;;0.83;71.37;99992.75;4968370;28;20063;-80
2023/02/15 04:54:32;;;;;;;55.05;28.60;;;;;;;0.86;71.25;99994.22;4968375;28;20031;-81
2023/02/15 04:56:58;;;;;;;59.33;30.40;;;;;;;0.88;71.14;100001.13;4968367;28;20033;-82
2023/02/15 04:59:23;;;;;;;52.50;28.05;;;;;;;0.90;70.97;99998.22;4966976;28;20118;-80
2023/02/15 05:01:50;;;;;;;55.47;28.52;;;;;;;0.92;70.85;100009.66;4968477;28;20037;-80
2023/02/15 05:04:15;;;;;;;54.05;28.33;;;;;;;0.94;70.90;100009.50;4968528;28;20052;-80
2023/02/15 05:06:41;;;;;;;51.47;28.15;;;;;;;0.98;71.21;99999.97;4968080;28;20376;-80
2023/02/15 05:09:06;;;;;;;55.90;28.42;;;;;;;1.00;71.43;99996.03;4968514;28;20026;-81
2023/02/15 05:11:31;;;;;;;50.70;27.05;;;;;;;1.03;71.46;99992.09;4967143;28;20035;-81
2023/02/15 05:13:57;;;;;;;41.83;23.77;;;;;;;1.06;71.07;99990.88;4968571;28;20033;-80
2023/02/15 05:16:22;;;;;;;42.92;23.13;;;;;;;1.10;71.20;99989.44;4968325;28;20031;-80
2023/02/15 05:18:47;;;;;;;42.05;23.20;;;;;;;1.14;71.38;99991.56;4968602;28;20070;-80
2023/02/15 05:21:13;;;;;;;37.17;20.75;;;;;;;1.19;71.26;99993.69;4968361;28;20322;-80
2023/02/15 05:23:57;;;;;;;36.20;19.95;;;;;;;1.21;71.60;99988.91;4968053;28;20039;-80
2023/02/15 05:29:08;;;;;;;36.60;20.30;;;;;;;1.27;72.23;99977.28;4968278;28;20061;-80
2023/02/15 05:31:34;;;;;;;40.33;21.40;;;;;;;1.31;71.72;99983.16;4968058;28;20391;-80
2023/02/15 05:34:01;;;;;;;37.85;20.45;;;;;;;1.36;71.70;99978.00;4968880;28;20498;-78
2023/02/15 05:36:26;;;;;;;40.53;23.67;;;;;;;1.42;71.40;99979.06;4965162;28;20500;-78
2023/02/15 05:38:52;;;;;;;41.75;23.05;;;;;;;1.47;72.09;99987.41;4967150;28;20030;-77
2023/02/15 05:41:17;;;;;;;43.50;22.55;;;;;;;1.47;71.85;99982.81;4966552;28;20023;-77
2023/02/15 05:43:43;;;;;;;41.22;22.20;;;;;;;1.44;71.97;99977.81;4968947;28;20047;-77
2023/02/15 05:46:08;;;;;;;39.95;23.10;;;;;;;1.45;71.66;99975.97;4968337;28;20039;-77
2023/02/15 05:48:35;;;;;;;42.42;23.20;;;;;;;1.49;72.26;99972.66;4969262;28;20022;-77
2023/02/15 05:51:09;;;;;;;45.65;24.13;;;;;;;1.53;72.21;99977.66;4968743;28;20051;-77
2023/02/15 05:53:38;;;;;;;44.33;26.60;;;;;;;1.55;71.63;99976.44;4967986;28;20057;-77
2023/02/15 05:56:09;;;;;;;41.92;24.05;;;;;;;1.59;71.95;99982.28;4968494;28;20105;-78
2023/02/15 05:58:37;;;;;;;42.58;23.05;;;;;;;1.54;72.08;99979.31;4969217;28;20055;-78
2023/02/15 06:01:17;;;;;;;44.15;24.65;;;;;;;1.53;72.13;99974.97;4966338;28;20027;-77
2023/02/15 06:03:43;;;;;;;;;;;;;;;1.55;71.70;99970.19;4968048;28;20102;-77
2023/02/15 06:06:09;;;;;;;46.05;25.67;;;;;;;1.54;72.41;99977.47;4968250;28;20009;-78
2023/02/15 06:08:36;;;;;;;43.05;24.13;;;;;;;1.51;72.30;99985.13;4968336;28;20038;-78
2023/02/15 06:11:02;;;;;;;44.05;23.35;;;;;;;1.49;72.24;99988.06;4967424;28;20019;-81
2023/02/15 06:13:27;;;;;;;43.10;23.42;;;;;;;1.55;72.11;99994.53;4968775;28;20054;-81
2023/02/15 06:15:52;;;;;;;48.80;26.77;;;;;;;1.60;72.86;99994.75;4968181;28;20105;-79
2023/02/15 06:18:18;;;;;;;48.17;27.10;;;;;;;1.67;72.10;99995.63;4968703;28;20716;-78
2023/02/15 06:20:46;;;;;;;48.08;28.42;;;;;;;1.71;72.75;99993.34;4969017;28;20507;-80
2023/02/15 06:23:11;;;;;;;48.92;27.42;;;;;;;1.75;71.98;100003.59;4969701;28;20022;-78
2023/02/15 06:25:36;;;;;;;51.08;28.98;;;;;;;1.79;72.47;99998.59;4969570;28;20182;-78
2023/02/15 06:28:02;;;;;;;48.83;26.92;;;;;;;1.83;72.18;99994.47;4971929;28;20027;-77
2023/02/15 06:30:27;;;;;;;49.58;26.92;;;;;;;1.86;72.32;99998.63;4970520;28;20641;-77
2023/02/15 06:32:53;;;;;;;46.13;27.40;;;;;;;1.90;72.90;99991.78;4972939;28;20031;-77
2023/02/15 06:35:18;;;;;;;51.83;26.20;;;;;;;1.92;72.25;99997.84;4972030;28;20145;-82
2023/02/15 06:37:45;;;;;;;44.97;26.48;;;;;;;1.97;72.15;100006.19;4972317;28;20038;-76
2023/02/15 06:40:11;;;;;;;47.00;26.58;;;;;;;2.00;72.25;100003.06;4971559;28;20054;-79
2023/02/15 06:42:36;;;;;;;45.92;24.98;;;;;;;2.01;72.28;100004.75;4972274;28;20492;-79
2023/02/15 06:45:01;;;;;;;44.70;25.15;;;;;;;2.03;72.68;100001.84;4971705;28;20023;-80
2023/02/15 06:47:27;;;;;;;41.88;24.35;;;;;;;2.03;72.61;99994.56;4971925;28;20488;-80
2023/02/15 06:49:52;;;;;;;42.67;24.55;;;;;;;2.06;71.85;99990.59;4971224;28;20022;-78
2023/02/15 06:52:18;;;;;;;43.08;23.38;;;;;;;2.07;72.17;99995.81;4971968;28;20134;-77
2023/02/15 06:54:43;;;;;;;46.47;24.83;;;;;;;2.09;72.69;100001.03;4971872;28;20507;-77
2023/02/15 06:57:09;;;;;;;46.95;26.20;;;;;;;2.11;72.28;100004.38;4972157;28;20065;-77
2023/02/15 06:59:34;;;;;;;48.60;27.95;;;;;;;2.12;72.64;100002.50;4971660;28;20510;-76
2023/02/15 07:02:00;;;;;;;50.92;30.02;;;;;;;2.12;72.40;99995.22;4971101;28;20119;-77
2023/02/15 07:04:25;;;;;;;60.03;31.67;;;;;;;2.11;72.14;99996.25;4972175;28;20027;-77
2023/02/15 07:06:51;;;;;;;61.72;33.60;;;;;;;2.11;72.45;99998.94;4972078;28;20797;-78
2023/02/15 07:09:16;;;;;;;64.53;33.10;;;;;;;2.08;72.19;99991.22;4971870;28;20093;-77
2023/02/15 07:14:25;;;;;;;62.15;29.95;;;;;;;2.03;71.97;99991.03;4971186;28;20527;-79
2023/02/15 07:16:50;;;;;;;61.33;28.73;;;;;;;2.04;71.98;99990.81;4970740;28;20058;-78
2023/02/15 07:19:16;;;;;;;60.30;29.88;;;;;;;2.04;72.66;99989.97;4971645;28;20626;-78
2023/02/15 07:21:41;;;;;;;59.70;29.10;;;;;;;2.04;72.33;99984.56;4971471;28;20033;-79
2023/02/15 07:24:07;;;;;;;58.08;29.48;;;;;;;2.05;72.81;99989.78;4971830;28;20027;-77
2023/02/15 07:26:33;;;;;;;60.63;29.05;;;;;;;2.06;71.97;99982.47;4970310;28;20158;-80
2023/02/15 07:28:58;;;;;;;52.38;26.92;;;;;;;2.08;71.98;99988.53;4970079;28;20031;-79
2023/02/15 07:31:24;;;;;;;51.78;26.80;;;;;;;2.08;72.03;99981.25;4970410;28;20030;-78
2023/02/15 07:33:49;;;;;;;44.45;24.50;;;;;;;2.11;72.12;99980.00;4971328;28;20113;-78
2023/02/15 07:36:15;;;;;;;46.00;24.52;;;;;;;2.11;72.02;99982.72;4968407;28;20027;-78
2023/02/15 07:38:41;;;;;;;43.38;23.65;;;;;;;2.14;72.61;99984.19;4966617;28;20519;-79
2023/02/15 07:41:10;;;;;;;43.15;24.98;;;;;;;2.15;72.68;99975.84;4970837;28;20365;-79
2023/02/15 07:43:38;;;;;;;53.08;32.92;;;;;;;2.15;72.78;99980.44;4967550;28;20566;-80
2023/02/15 07:46:07;;;;;;;48.88;32.90;;;;;;;2.15;72.36;99975.03;4970446;28;20031;-78
2023/02/15 07:48:34;;;;;;;49.85;33.38;;;;;;;2.18;72.22;99978.16;4969916;28;20436;-80
2023/02/15 07:51:01;;;;;;;38.13;24.75;;;;;;;2.20;72.69;99989.63;4971034;28;20054;-77
2023/02/15 07:53:26;;;;;;;51.00;27.00;;;;;;;2.22;73.00;99984.84;4970329;28;20042;-80
2023/02/15 07:55:52;;;;;;;48.42;29.17;;;;;;;2.23;72.68;99978.38;4969077;28;20057;-82
2023/02/15 07:58:18;;;;;;;52.65;31.95;;;;;;;2.27;73.32;99972.56;4970508;28;20392;-83
2023/02/15 08:01:01;;;;;;;59.13;34.22;;;;;;;2.30;73.05;99977.56;4969788;28;20081;-82
2023/02/15 08:03:28;;;;;;;66.75;35.03;;;;;;;2.34;72.84;99974.25;4970871;28;20407;-84
2023/02/15 08:05:59;;;;;;;60.40;32.40;;;;;;;2.38;72.29;99980.09;4969296;28;20023;-79
2023/02/15 08:08:32;;;;;;;49.50;26.80;;;;;;;2.43;72.47;99974.06;4970189;28;20038;-78
2023/02/15 08:11:25;;;;;;;53.60;28.15;;;;;;;2.46;73.39;99968.22;4969208;28;20030;-80
2023/02/15 08:13:53;;;;;;;45.80;24.27;;;;;;;2.49;72.99;99965.94;4970006;28;20421;-82
2023/02/15 08:16:37;;;;;;;45.72;23.73;;;;;;;2.52;73.29;99965.53;4969514;28;20039;-79
2023/02/15 08:19:06;;;;;;;41.13;22.35;;;;;;;2.56;72.55;99963.25;4969462;28;20031;-85
2023/02/15 08:21:33;;;;;;;42.45;22.35;;;;;;;2.60;73.17;99964.50;4970120;28;20038;-78
2023/02/15 08:23:59;;;;;;;46.88;26.63;;;;;;;2.65;72.49;99958.47;4970366;28;20042;-77
2023/02/15 08:26:27;;;;;;;49.67;29.35;;;;;;;2.70;72.96;99950.56;4969892;28;20057;-78
2023/02/15 08:28:53;;;;;;;42.80;24.25;;;;;;;2.76;72.84;99959.72;4970582;28;20027;-82
2023/02/15 08:31:19;;;;;;;41.85;22.05;;;;;;;2.79;72.73;99953.88;4969733;28;20037;-77
2023/02/15 08:33:46;;;;;;;38.05;20.35;;;;;;;2.80;72.88;99950.13;4970420;28;20061;-78
2023/02/15 08:36:15;;;;;;;35.63;20.02;;;;;;;2.83;72.92;99942.44;4969700;28;20031;-75
2023/02/15 08:38:41;;;;;;;38.63;20.05;;;;;;;2.86;73.16;99935.75;4968386;28;20061;-79
2023/02/15 08:41:16;;;;;;;36.88;20.85;;;;;;;2.92;72.37;99934.06;4966960;28;20751;-83
2023/02/15 08:43:42;;;;;;;40.17;20.73;;;;;;;2.96;73.07;99928.03;4970058;28;20086;-76
2023/02/15 08:46:11;;;;;;;36.80;20.38;;;;;;;3.01;72.57;99937.41;4969556;28;20030;-80
2023/02/15 08:48:36;;;;;;;35.10;20.25;;;;;;;3.05;72.67;99933.25;4967033;28;20086;-80
2023/02/15 08:51:10;;;;;;;36.60;21.60;;;;;;;3.12;72.32;99934.06;4968161;28;20436;-79
2023/02/15 08:53:40;;;;;;;43.88;23.60;;;;;;;3.17;72.90;99931.53;4969680;28;20070;-81
2023/02/15 08:56:07;;;;;;;41.45;22.75;;;;;;;3.23;73.08;99930.72;4969808;28;20031;-79
2023/02/15 08:58:33;;;;;;;38.97;22.00;;;;;;;3.29;72.55;99929.00;4969006;28;20048;-79
2023/02/15 09:00:59;;;;;;;36.58;20.65;;;;;;;3.33;72.22;99924.84;4966355;28;20031;-79
2023/02/15 09:03:25;;;;;;;39.53;20.52;;;;;;;3.39;72.87;99921.28;4968913;28;20126;-80
2023/02/15 09:05:50;;;;;;;39.78;20.60;;;;;;;3.45;72.88;99916.06;4967536;28;20057;-81
2023/02/15 09:08:16;;;;;;;41.95;21.20;;;;;;;3.50;72.77;99917.06;4967449;28;20019;-80
2023/02/15 09:10:41;;;;;;;35.40;19.55;;;;;;;3.57;72.92;99923.31;4967859;28;20586;-81
2023/02/15 09:13:08;;;;;;;40.05;22.02;;;;;;;3.62;72.78;99909.13;4966782;28;20161;-80
2023/02/15 09:15:33;;;;;;;37.97;20.60;;;;;;;3.68;72.16;99913.66;4968364;28;20476;-80
2023/02/15 09:18:01;;;;;;;36.97;20.45;;;;;;;3.73;71.95;99908.41;4967954;28;20027;-80
2023/02/15 09:20:27;;;;;;;41.95;22.13;;;;;;;3.75;72.61;99908.22;4966563;28;20038;-80
2023/02/15 09:22:54;;;;;;;55.33;27.25;;;;;;;3.79;72.35;99901.31;4981052;28;20027;-80
2023/02/15 09:25:19;;;;;;;46.60;26.00;;;;;;;3.85;72.31;99903.16;4967304;28;20130;-83
2023/02/15 09:27:44;;;;;;;54.28;25.75;;;;;;;3.88;71.83;99907.31;4966578;28;20547;-80
2023/02/15 09:30:10;;;;;;;41.75;21.00;;;;;;;3.90;71.51;99897.09;4968152;28;20027;-80
2023/02/15 09:32:36;;;;;;;34.58;19.13;;;;;;;3.94;71.77;99897.47;4968614;28;20399;-83
2023/02/15 09:35:01;;;;;;;32.45;18.35;;;;;;;3.98;71.49;99890.56;4966841;28;20035;-82
2023/02/15 09:37:27;;;;;;;38.08;18.80;;;;;;;4.00;71.77;99885.75;4982541;28;20113;-80
2023/02/15 09:39:52;;;;;;;37.92;19.33;;;;;;;4.02;71.39;99880.94;4968236;28;20031;-84
2023/02/15 09:42:42;;;;;;;44.63;23.70;;;;;;;4.05;71.90;99895.97;4966771;28;20037;-79
2023/02/15 09:45:26;;;;;;;44.03;23.33;;;;;;;4.08;71.65;99888.22;4968553;28;20053;-80
2023/02/15 09:48:27;;;;;;;40.65;21.67;;;;;;;4.15;70.85;99888.16;4968122;28;20573;-81
2023/02/15 09:51:11;;;;;;;42.30;21.98;;;;;;;4.17;71.18;99883.34;4966339;28;20090;-80
2023/02/15 09:53:42;;;;;;;47.30;22.85;;;;;;;4.23;71.00;99884.38;4966190;28;20581;-87
2023/02/15 09:56:29;;;;;;;45.72;23.15;;;;;;;4.23;70.53;99881.66;4967313;28;20034;-84
2023/02/15 09:59:26;;;;;;;46.42;21.25;;;;;;;4.28;71.22;99873.69;4968497;28;20046;-84
2023/02/15 10:02:29;;;;;;;43.85;21.58;;;;;;;4.36;70.10;99876.09;4965279;28;20046;-79
2023/02/15 10:05:06;;;;;;;40.38;20.45;;;;;;;4.41;70.58;99872.75;4972183;28;20110;-81
2023/02/15 10:07:47;;;;;;;46.78;22.88;;;;;;;4.47;69.99;99871.88;4971977;28;20439;-81
2023/02/15 10:10:33;;;;;;;46.55;22.80;;;;;;;4.50;70.23;99865.16;4972261;28;20030;-82
2023/02/15 10:13:13;;;;;;;45.95;23.40;;;;;;;4.57;70.02;99860.50;4970266;28;20041;-80
2023/02/15 10:15:45;;;;;;;49.10;23.95;;;;;;;4.60;70.10;99858.16;4975426;28;20061;-81
2023/02/15 10:18:25;;;;;;;47.80;23.40;;;;;;;4.70;70.55;99854.94;4972294;28;20031;-80
2023/02/15 10:21:09;;;;;;;47.75;24.02;;;;;;;4.79;70.79;99860.94;4969764;28;20031;-81
2023/02/15 10:24:09;;;;;;;44.65;21.90;;;;;;;4.89;70.25;99852.25;4971245;28;20027;-85
2023/02/15 10:26:44;;;;;;;43.15;22.42;;;;;;;4.98;70.53;99855.50;4971783;28;20031;-87
2023/02/15 10:29:36;;;;;;;42.92;22.08;;;;;;;5.04;69.83;99841.88;4974068;28;20058;-83
2023/02/15 10:32:11;;;;;;;46.58;22.63;;;;;;;5.10;70.01;99845.56;4970196;28;20106;-80
2023/02/15 10:35:23;;;;;;;52.53;25.15;;;;;;;5.16;69.97;99852.81;4971311;28;20035;-85
2023/02/15 10:38:21;;;;;;;42.97;23.20;;;;;;;5.24;69.72;99846.22;4969429;28;20023;-79
2023/02/15 10:41:04;;;;;;;44.97;23.15;;;;;;;5.31;69.82;99846.16;4971644;28;20126;-77
2023/02/15 10:43:57;;;;;;;42.58;22.13;;;;;;;5.36;69.55;99841.69;4973516;28;20392;-80
2023/02/15 10:46:50;;;;;;;41.00;20.27;;;;;;;5.45;69.62;99842.22;4971175;28;20034;-82
2023/02/15 10:49:57;;;;;;;43.35;20.50;;;;;;;5.52;69.27;99836.69;4971196;28;20034;-82
2023/02/15 10:52:41;;;;;;;36.00;19.33;;;;;;;5.59;69.46;99833.91;4982507;28;20070;-81
2023/02/15 10:55:23;;;;;;;41.72;21.75;;;;;;;5.66;68.97;99840.09;4970409;28;20192;-78
2023/02/15 10:58:13;;;;;;;37.63;19.65;;;;;;;5.66;68.50;99834.66;4969455;28;20039;-84
2023/02/15 11:00:58;;;;;;;39.95;19.48;;;;;;;5.69;68.19;99830.63;4968403;28;20027;-85
2023/02/15 11:03:36;;;;;;;35.72;18.27;;;;;;;5.75;68.77;99826.97;4965463;28;20035;-85
2023/02/15 11:06:07;;;;;;;36.08;18.50;;;;;;;5.79;67.21;99831.72;4968882;28;20085;-82
2023/02/15 11:08:36;;;;;;;37.47;19.27;;;;;;;5.86;67.81;99828.06;4967257;28;20042;-81
2023/02/15 11:11:09;;;;;;;35.20;18.80;;;;;;;5.86;67.24;99828.94;4969112;28;20031;-84
2023/02/15 11:13:39;;;;;;;38.78;20.88;;;;;;;5.89;67.72;99822.16;4968703;28;20097;-81
2023/02/15 11:16:14;;;;;;;35.83;18.83;;;;;;;5.94;67.11;99814.97;4968511;28;20440;-83
2023/02/15 11:18:46;;;;;;;34.65;18.45;;;;;;;6.00;67.54;99820.53;4968986;28;20096;-78
2023/02/15 11:21:20;;;;;;;38.83;19.40;;;;;;;6.04;67.58;99814.44;4968743;28;20547;-85
2023/02/15 11:23:46;;;;;;;37.28;18.90;;;;;;;6.12;67.23;99816.00;4971225;28;20736;-82
2023/02/15 11:26:17;;;;;;;38.58;19.17;;;;;;;6.18;66.83;99804.16;4969189;28;20035;-80
2023/02/15 11:28:54;;;;;;;35.47;18.30;;;;;;;6.25;66.62;99804.91;4969336;28;20023;-80
2023/02/15 11:31:26;;;;;;;39.40;20.00;;;;;;;6.31;66.55;99799.56;4969848;28;20030;-79
2023/02/15 11:34:00;;;;;;;38.47;19.70;;;;;;;6.37;66.40;99798.59;4968398;28;20415;-80
2023/02/15 11:36:33;;;;;;;35.00;18.08;;;;;;;6.40;66.52;99787.25;4969763;28;20034;-80
2023/02/15 11:39:04;;;;;;;29.08;15.38;;;;;;;6.47;66.18;99787.97;4973438;28;20559;-79
2023/02/15 11:41:36;;;;;;;33.15;16.77;;;;;;;6.51;66.28;99786.44;4968442;28;20030;-81
2023/02/15 11:44:12;;;;;;;27.08;14.75;;;;;;;6.61;66.44;99783.09;4969485;28;20022;-79
2023/02/15 11:46:39;;;;;;;29.58;16.60;;;;;;;6.68;66.04;99781.09;4969214;28;20035;-80
2023/02/15 11:49:26;;;;;;;34.65;17.88;;;;;;;6.75;65.40;99783.69;4967755;28;20041;-81
2023/02/15 11:51:55;;;;;;;27.67;14.02;;;;;;;6.79;65.90;99776.69;4965812;28;20049;-80
2023/02/15 11:54:38;;;;;;;28.60;14.23;;;;;;;6.87;65.74;99780.13;4969867;28;20138;-79
2023/02/15 11:57:48;;;;;;;26.35;14.00;;;;;;;6.95;65.83;99774.31;4967048;28;20061;-78
2023/02/15 12:00:57;;;;;;;27.27;14.70;;;;;;;7.04;65.53;99775.59;4930124;29;20529;-79
2023/02/15 12:03:48;;;;;;;25.98;13.70;;;;;;;7.10;65.22;99763.72;4929214;29;20072;-82
2023/02/15 12:07:01;;;;;;;25.33;15.77;;;;;;;7.18;64.92;99761.66;4927265;29;20058;-78
2023/02/15 12:10:04;;;;;;;24.75;14.13;;;;;;;7.21;64.79;99750.28;4928106;29;20195;-76
2023/02/15 12:12:36;;;;;;;25.38;13.85;;;;;;;7.29;64.76;99756.19;4928444;29;20055;-79